Time;durP1;ratioP1;P1;durP2;ratioP2;P2;SDS_P1;SDS_P2;PMS_P1;PMS_P2;Temp;Humidity;BMP_temperature;BMP_pressure;BME280_temperature;BME280_humidity;BME280_pressure;Samples;Min_cycle;Max_cycle;Signal;HPM_P1;HPM_P2
2023/06/20 00:01:11;;;;;;;6.97;4.38;;;;;;;;;;7371061;19;20805;-62
2023/06/20 00:03:37;;;;;;;9.25;4.47;;;;;;;;;;7370761;19;20020;-63
2023/06/20 00:06:02;;;;;;;11.20;4.93;;;;;;;;;;7368483;19;20017;-61
2023/06/20 00:08:27;;;;;;;11.13;4.55;;;;;;;;;;7389618;19;20022;-63
2023/06/20 00:10:53;;;;;;;8.55;4.70;;;;;;;;;;7369975;19;20014;-62
2023/06/20 00:13:18;;;;;;;10.38;5.75;;;;;;;;;;7371536;19;20450;-62
2023/06/20 00:15:44;;;;;;;7.50;5.55;;;;;;;;;;7371094;19;20424;-61
2023/06/20 00:18:09;;;;;;;8.10;5.40;;;;;;;;;;7368462;19;20014;-62
2023/06/20 00:20:35;;;;;;;9.68;5.88;;;;;;;;;;7392284;19;20029;-62
2023/06/20 00:23:02;;;;;;;10.60;5.97;;;;;;;;;;7371673;19;20017;-62
2023/06/20 00:25:27;;;;;;;9.05;6.13;;;;;;;;;;7369813;19;20022;-61
2023/06/20 00:27:52;;;;;;;7.95;5.90;;;;;;;;;;7371454;19;20010;-62
2023/06/20 00:30:18;;;;;;;11.20;6.07;;;;;;;;;;7371294;19;20097;-63
2023/06/20 00:32:43;;;;;;;7.68;6.05;;;;;;;;;;7392361;19;20006;-62
2023/06/20 00:35:08;;;;;;;11.05;6.15;;;;;;;;;;7370763;19;20021;-63
2023/06/20 00:37:36;;;;;;;10.23;6.35;;;;;;;;;;7368696;19;20034;-64
2023/06/20 00:40:04;;;;;;;8.68;6.50;;;;;;;;;;7369706;19;20014;-62
2023/06/20 00:42:30;;;;;;;12.25;7.03;;;;;;;;;;7368559;19;20010;-62
2023/06/20 00:44:55;;;;;;;9.75;7.03;;;;;;;;;;7369727;19;20468;-62
2023/06/20 00:47:20;;;;;;;10.50;6.60;;;;;;;;;;7391324;19;20011;-63
2023/06/20 00:49:48;;;;;;;8.40;6.53;;;;;;;;;;7370026;19;20040;-63
2023/06/20 00:52:17;;;;;;;11.77;6.50;;;;;;;;;;7371054;19;20014;-63
2023/06/20 00:54:44;;;;;;;8.60;6.82;;;;;;;;;;7370195;19;20011;-63
2023/06/20 00:57:14;;;;;;;9.80;6.53;;;;;;;;;;7368933;19;20025;-62
2023/06/20 00:59:48;;;;;;;10.30;6.78;;;;;;;;;;7391515;19;20013;-62
2023/06/20 01:02:14;;;;;;;13.23;6.40;;;;;;;;;;7369692;19;20779;-62
2023/06/20 01:04:41;;;;;;;11.50;7.10;;;;;;;;;;7366153;19;20023;-61
2023/06/20 01:07:12;;;;;;;9.95;6.75;;;;;;;;;;7369633;19;20041;-62
2023/06/20 01:09:46;;;;;;;11.80;6.90;;;;;;;;;;7369400;19;20118;-62
2023/06/20 01:12:25;;;;;;;11.90;6.72;;;;;;;;;;7370331;19;20022;-61
2023/06/20 01:15:15;;;;;;;9.60;7.07;;;;;;;;;;7391766;19;20338;-62
2023/06/20 01:17:59;;;;;;;12.88;6.75;;;;;;;;;;7368013;19;20023;-62
2023/06/20 01:20:44;;;;;;;10.25;6.78;;;;;;;;;;7370009;19;20122;-62
2023/06/20 01:23:25;;;;;;;10.15;6.70;;;;;;;;;;7369627;19;20733;-63
2023/06/20 01:26:17;;;;;;;11.38;6.03;;;;;;;;;;7366330;19;20503;-62
2023/06/20 01:28:50;;;;;;;10.43;6.53;;;;;;;;;;7367780;19;20062;-62
2023/06/20 01:31:24;;;;;;;8.30;6.03;;;;;;;;;;7370087;19;20014;-62
2023/06/20 01:34:03;;;;;;;11.25;6.28;;;;;;;;;;7370656;19;20177;-60
2023/06/20 01:36:33;;;;;;;7.97;6.07;;;;;;;;;;7369933;19;20014;-62
2023/06/20 01:39:05;;;;;;;7.85;5.65;;;;;;;;;;7369954;19;20027;-62
2023/06/20 01:41:31;;;;;;;12.18;6.57;;;;;;;;;;7390694;19;20030;-62
2023/06/20 01:44:00;;;;;;;8.52;6.00;;;;;;;;;;7368421;19;20006;-62
2023/06/20 01:46:26;;;;;;;8.90;5.28;;;;;;;;;;7367506;19;20017;-62
2023/06/20 01:48:53;;;;;;;9.73;6.03;;;;;;;;;;7367767;19;20540;-62
2023/06/20 01:51:20;;;;;;;9.00;5.50;;;;;;;;;;7369023;19;20017;-61
2023/06/20 01:53:47;;;;;;;8.68;5.70;;;;;;;;;;7390848;19;20416;-61
2023/06/20 01:56:13;;;;;;;8.93;5.90;;;;;;;;;;7369268;19;20009;-62
2023/06/20 01:58:42;;;;;;;11.32;5.75;;;;;;;;;;7367353;19;20464;-61
2023/06/20 02:01:08;;;;;;;10.68;6.70;;;;;;;;;;7368676;19;20007;-62
2023/06/20 02:03:34;;;;;;;9.43;6.38;;;;;;;;;;7368352;19;20018;-61
2023/06/20 02:06:01;;;;;;;12.45;6.53;;;;;;;;;;7367007;19;20023;-60
2023/06/20 02:08:29;;;;;;;9.30;6.95;;;;;;;;;;7389603;19;19995;-61
2023/06/20 02:10:55;;;;;;;10.82;6.63;;;;;;;;;;7367945;19;20014;-61
2023/06/20 02:13:22;;;;;;;14.48;7.88;;;;;;;;;;7369194;19;20037;-63
2023/06/20 02:15:48;;;;;;;11.57;7.68;;;;;;;;;;7366595;19;20078;-62
2023/06/20 02:18:14;;;;;;;12.90;8.77;;;;;;;;;;7368737;19;20465;-61
2023/06/20 02:20:40;;;;;;;12.23;8.88;;;;;;;;;;7391320;19;20002;-63
2023/06/20 02:23:07;;;;;;;11.93;8.85;;;;;;;;;;7369854;19;20010;-62
2023/06/20 02:25:34;;;;;;;13.93;9.50;;;;;;;;;;7369053;19;20010;-62
2023/06/20 02:28:00;;;;;;;18.52;9.70;;;;;;;;;;7370967;19;20010;-62
2023/06/20 02:30:29;;;;;;;14.95;9.93;;;;;;;;;;7370829;19;20018;-62
2023/06/20 02:32:57;;;;;;;13.90;10.13;;;;;;;;;;7368439;19;20016;-63
2023/06/20 02:35:23;;;;;;;16.92;10.63;;;;;;;;;;7389835;19;20022;-63
2023/06/20 02:37:53;;;;;;;17.17;10.48;;;;;;;;;;7367068;19;20014;-62
2023/06/20 02:40:24;;;;;;;14.45;10.10;;;;;;;;;;7367749;19;20019;-62
2023/06/20 02:42:50;;;;;;;16.30;10.70;;;;;;;;;;7366951;19;20078;-61
2023/06/20 02:45:16;;;;;;;13.80;11.07;;;;;;;;;;7364625;19;20031;-61
2023/06/20 02:48:12;;;;;;;14.63;10.80;;;;;;;;;;7386998;19;20006;-61
2023/06/20 02:51:07;;;;;;;17.40;11.15;;;;;;;;;;7367206;19;20074;-61
2023/06/20 02:54:04;;;;;;;16.60;10.65;;;;;;;;;;7369527;19;20027;-59
2023/06/20 02:56:35;;;;;;;20.55;12.18;;;;;;;;;;7368046;19;20015;-60
2023/06/20 02:59:02;;;;;;;16.80;11.23;;;;;;;;;;7367877;19;20014;-61
2023/06/20 03:01:30;;;;;;;16.38;10.88;;;;;;;;;;7366690;19;20046;-62
2023/06/20 03:04:02;;;;;;;19.92;10.85;;;;;;;;;;7365831;19;20010;-61
2023/06/20 03:06:28;;;;;;;15.63;9.98;;;;;;;;;;7364777;19;20031;-61
2023/06/20 03:08:57;;;;;;;13.48;10.00;;;;;;;;;;7367003;19;20014;-61
2023/06/20 03:11:23;;;;;;;16.08;10.38;;;;;;;;;;7387936;19;20006;-61
2023/06/20 03:13:49;;;;;;;16.08;10.13;;;;;;;;;;7367753;19;20015;-63
2023/06/20 03:16:14;;;;;;;17.92;11.35;;;;;;;;;;7364120;19;20010;-61
2023/06/20 03:18:40;;;;;;;15.75;11.05;;;;;;;;;;7365239;19;20006;-62
2023/06/20 03:21:05;;;;;;;16.30;10.32;;;;;;;;;;7366107;19;20508;-61
2023/06/20 03:23:31;;;;;;;14.10;11.05;;;;;;;;;;7389220;19;20010;-63
2023/06/20 03:25:57;;;;;;;15.02;11.18;;;;;;;;;;7368631;19;20006;-61
2023/06/20 03:28:24;;;;;;;15.05;10.85;;;;;;;;;;7375679;19;20006;-61
2023/06/20 03:30:50;;;;;;;19.25;10.93;;;;;;;;;;7373971;19;20026;-61
2023/06/20 03:33:15;;;;;;;15.70;10.55;;;;;;;;;;7369701;19;20026;-61
2023/06/20 03:35:40;;;;;;;16.17;10.82;;;;;;;;;;7394755;19;20070;-61
2023/06/20 03:38:05;;;;;;;15.35;10.52;;;;;;;;;;7370341;19;20081;-62
2023/06/20 03:40:31;;;;;;;15.02;10.73;;;;;;;;;;7372160;19;20043;-63
2023/06/20 03:42:57;;;;;;;16.50;12.18;;;;;;;;;;7372951;19;20018;-63
2023/06/20 03:45:22;;;;;;;19.75;11.73;;;;;;;;;;7372387;19;20014;-64
2023/06/20 03:47:47;;;;;;;16.52;11.02;;;;;;;;;;7389363;19;20090;-63
2023/06/20 03:50:13;;;;;;;20.58;12.38;;;;;;;;;;7369008;19;20074;-62
2023/06/20 03:52:38;;;;;;;18.27;12.63;;;;;;;;;;7370631;19;20027;-62
2023/06/20 03:55:04;;;;;;;15.13;11.20;;;;;;;;;;7372656;19;20006;-63
2023/06/20 03:57:29;;;;;;;20.17;12.73;;;;;;;;;;7372993;19;20010;-65
2023/06/20 03:59:54;;;;;;;15.50;11.95;;;;;;;;;;7367678;19;20010;-62
2023/06/20 04:02:20;;;;;;;17.65;12.98;;;;;;;;;;7395687;19;20018;-63
2023/06/20 04:04:50;;;;;;;19.70;12.70;;;;;;;;;;7372145;19;20874;-63
2023/06/20 04:07:18;;;;;;;18.33;13.27;;;;;;;;;;7372146;19;20031;-64
2023/06/20 04:09:49;;;;;;;16.73;12.45;;;;;;;;;;7373367;19;20247;-62
2023/06/20 04:12:14;;;;;;;19.42;14.27;;;;;;;;;;7372793;19;20342;-63
2023/06/20 04:14:39;;;;;;;19.90;13.68;;;;;;;;;;7394711;19;19999;-63
2023/06/20 04:17:05;;;;;;;19.60;13.00;;;;;;;;;;7371339;19;20588;-62
2023/06/20 04:19:30;;;;;;;18.45;13.25;;;;;;;;;;7372734;19;20010;-63
2023/06/20 04:21:55;;;;;;;18.38;12.20;;;;;;;;;;7372655;19;20002;-63
2023/06/20 04:24:21;;;;;;;16.48;12.07;;;;;;;;;;7373151;19;20014;-63
2023/06/20 04:26:46;;;;;;;16.90;12.75;;;;;;;;;;7392623;19;20694;-62
2023/06/20 04:29:11;;;;;;;17.13;12.25;;;;;;;;;;7372355;19;20018;-62
2023/06/20 04:31:37;;;;;;;18.73;12.27;;;;;;;;;;7371083;19;20094;-63
2023/06/20 04:34:02;;;;;;;16.38;12.75;;;;;;;;;;7372068;19;20014;-61
2023/06/20 04:36:33;;;;;;;17.75;12.40;;;;;;;;;;7369321;19;20105;-64
2023/06/20 04:38:59;;;;;;;18.58;11.82;;;;;;;;;;7368262;19;20110;-65
2023/06/20 04:41:25;;;;;;;16.35;12.10;;;;;;;;;;7393425;19;20355;-64
2023/06/20 04:43:50;;;;;;;15.63;12.15;;;;;;;;;;7372963;19;20011;-63
2023/06/20 04:46:15;;;;;;;17.80;12.10;;;;;;;;;;7370572;19;20011;-62
2023/06/20 04:48:42;;;;;;;16.73;12.02;;;;;;;;;;7369079;19;20011;-63
2023/06/20 04:51:08;;;;;;;15.05;11.73;;;;;;;;;;7371978;19;20107;-65
2023/06/20 04:53:35;;;;;;;14.70;12.00;;;;;;;;;;7392678;19;20006;-63
2023/06/20 04:56:01;;;;;;;15.32;11.68;;;;;;;;;;7370475;19;20555;-63
2023/06/20 04:58:28;;;;;;;16.13;12.10;;;;;;;;;;7370811;19;20010;-62
2023/06/20 05:01:03;;;;;;;16.70;12.32;;;;;;;;;;7371133;19;20730;-63
2023/06/20 05:03:29;;;;;;;16.85;12.05;;;;;;;;;;7372079;19;20560;-60
2023/06/20 05:05:54;;;;;;;14.13;10.90;;;;;;;;;;7367014;19;20006;-60
2023/06/20 05:08:19;;;;;;;17.45;11.38;;;;;;;;;;7391035;19;20012;-63
2023/06/20 05:10:45;;;;;;;13.70;10.93;;;;;;;;;;7367262;19;20027;-62
2023/06/20 05:13:10;;;;;;;13.02;10.18;;;;;;;;;;7372240;19;20022;-64
2023/06/20 05:15:36;;;;;;;25.58;10.00;;;;;;;;;;7374057;19;20015;-62
2023/06/20 05:18:01;;;;;;;15.35;10.10;;;;;;;;;;7375796;19;20003;-62
2023/06/20 05:20:27;;;;;;;16.60;9.95;;;;;;;;;;7397757;19;19999;-62
2023/06/20 05:22:52;;;;;;;13.95;9.65;;;;;;;;;;7377995;19;20146;-63
2023/06/20 05:25:17;;;;;;;17.42;10.35;;;;;;;;;;7378570;19;20010;-62
2023/06/20 05:27:43;;;;;;;13.60;9.85;;;;;;;;;;7370797;19;20050;-62
2023/06/20 05:30:08;;;;;;;16.98;10.40;;;;;;;;;;7370776;19;20006;-61
2023/06/20 05:32:34;;;;;;;16.40;10.40;;;;;;;;;;7386475;19;20014;-62
2023/06/20 05:34:59;;;;;;;13.88;10.43;;;;;;;;;;7363201;19;20069;-64
2023/06/20 05:37:25;;;;;;;13.55;10.10;;;;;;;;;;7359808;19;20019;-64
2023/06/20 05:39:50;;;;;;;12.48;10.00;;;;;;;;;;7369383;19;20070;-63
2023/06/20 05:42:17;;;;;;;16.77;10.73;;;;;;;;;;7369990;19;20081;-63
2023/06/20 05:44:42;;;;;;;12.57;10.35;;;;;;;;;;7391020;19;20023;-62
2023/06/20 05:47:08;;;;;;;13.07;10.82;;;;;;;;;;7364210;19;20002;-62
2023/06/20 05:49:33;;;;;;;15.00;11.38;;;;;;;;;;7367949;19;20072;-62
2023/06/20 05:51:59;;;;;;;17.27;13.25;;;;;;;;;;7369510;19;20014;-62
2023/06/20 05:54:24;;;;;;;14.93;10.93;;;;;;;;;;7370605;19;20019;-62
2023/06/20 05:56:51;;;;;;;12.77;10.68;;;;;;;;;;7390421;19;20041;-61
2023/06/20 05:59:16;;;;;;;15.25;10.73;;;;;;;;;;7368782;19;20630;-62
2023/06/20 06:01:41;;;;;;;15.05;10.55;;;;;;;;;;7369527;19;20003;-64
2023/06/20 06:04:07;;;;;;;13.55;9.57;;;;;;;;;;7369959;19;20027;-63
2023/06/20 06:06:33;;;;;;;13.23;9.65;;;;;;;;;;7365761;19;20015;-62
2023/06/20 06:08:58;;;;;;;13.70;10.18;;;;;;;;;;7368990;19;20028;-63
2023/06/20 06:11:25;;;;;;;15.77;10.18;;;;;;;;;;7390357;19;20014;-63
2023/06/20 06:13:50;;;;;;;16.88;9.95;;;;;;;;;;7367865;19;20070;-63
2023/06/20 06:16:15;;;;;;;14.45;9.65;;;;;;;;;;7370506;19;20503;-63
2023/06/20 06:18:41;;;;;;;12.98;9.95;;;;;;;;;;7367214;19;20011;-63
2023/06/20 06:21:07;;;;;;;13.82;10.35;;;;;;;;;;7368483;19;20070;-63
2023/06/20 06:23:32;;;;;;;14.07;11.18;;;;;;;;;;7384772;19;20680;-63
2023/06/20 06:26:02;;;;;;;14.10;9.82;;;;;;;;;;7364405;19;20014;-64
2023/06/20 06:28:28;;;;;;;17.83;11.55;;;;;;;;;;7364202;19;20045;-63
2023/06/20 06:30:54;;;;;;;14.80;10.85;;;;;;;;;;7365364;19;20369;-61
2023/06/20 06:33:20;;;;;;;14.80;11.38;;;;;;;;;;7368513;19;20019;-63
2023/06/20 06:35:46;;;;;;;14.95;11.55;;;;;;;;;;7390739;19;20009;-62
2023/06/20 06:38:12;;;;;;;19.45;11.20;;;;;;;;;;7364252;19;20024;-64
2023/06/20 06:40:37;;;;;;;15.43;9.75;;;;;;;;;;7367583;19;20035;-62
2023/06/20 06:43:02;;;;;;;13.48;10.20;;;;;;;;;;7365827;19;20018;-63
2023/06/20 06:45:28;;;;;;;12.65;10.63;;;;;;;;;;7366009;19;20014;-63
2023/06/20 06:47:54;;;;;;;15.27;11.00;;;;;;;;;;7368520;19;20031;-62
2023/06/20 06:50:20;;;;;;;12.60;10.05;;;;;;;;;;7388840;19;20002;-62
2023/06/20 06:52:45;;;;;;;13.20;9.75;;;;;;;;;;7367788;19;20425;-66
2023/06/20 06:55:10;;;;;;;12.70;9.25;;;;;;;;;;7367587;19;20139;-67
2023/06/20 06:57:36;;;;;;;14.05;9.20;;;;;;;;;;7366934;19;20010;-62
2023/06/20 07:00:01;;;;;;;14.13;10.40;;;;;;;;;;7367300;19;20485;-69
2023/06/20 07:02:27;;;;;;;13.38;11.15;;;;;;;;;;7387377;19;20002;-77
2023/06/20 07:04:53;;;;;;;13.57;11.60;;;;;;;;;;7368580;19;20105;-73
2023/06/20 07:07:18;;;;;;;14.35;10.75;;;;;;;;;;7367548;19;20518;-70
2023/06/20 07:09:43;;;;;;;13.23;11.07;;;;;;;;;;7368837;19;20066;-79
2023/06/20 07:12:09;;;;;;;13.77;11.02;;;;;;;;;;7369267;19;20007;-75
2023/06/20 07:14:34;;;;;;;13.02;10.70;;;;;;;;;;7389939;19;20022;-76
2023/06/20 07:17:00;;;;;;;13.77;10.75;;;;;;;;;;7366743;19;20438;-73
2023/06/20 07:19:25;;;;;;;16.38;11.05;;;;;;;;;;7368367;19;20007;-73
2023/06/20 07:21:51;;;;;;;17.23;11.20;;;;;;;;;;7368897;19;20036;-72
2023/06/20 07:24:16;;;;;;;11.45;10.18;;;;;;;;;;7367363;19;20066;-74
2023/06/20 07:26:41;;;;;;;14.48;9.80;;;;;;;;;;7391384;19;20018;-75
2023/06/20 07:29:07;;;;;;;12.88;10.38;;;;;;;;;;7382154;19;20014;-71
2023/06/20 07:31:32;;;;;;;13.77;10.23;;;;;;;;;;7373415;19;20009;-73
2023/06/20 07:33:58;;;;;;;13.55;10.75;;;;;;;;;;7367413;19;20031;-73
2023/06/20 07:36:23;;;;;;;13.57;11.73;;;;;;;;;;7367889;19;20015;-73
2023/06/20 07:38:48;;;;;;;15.68;11.02;;;;;;;;;;7389968;19;20003;-71
2023/06/20 07:41:13;;;;;;;14.95;12.02;;;;;;;;;;7368101;19;20017;-67
2023/06/20 07:43:39;;;;;;;18.92;12.40;;;;;;;;;;7368138;19;20074;-74
2023/06/20 07:46:04;;;;;;;11.33;10.13;;;;;;;;;;7367194;19;20027;-72
2023/06/20 07:48:29;;;;;;;13.55;11.43;;;;;;;;;;7366088;19;20598;-71
2023/06/20 07:50:56;;;;;;;13.90;11.10;;;;;;;;;;7366688;19;20009;-70
2023/06/20 07:53:21;;;;;;;18.55;11.82;;;;;;;;;;7389759;19;20066;-68
2023/06/20 07:55:47;;;;;;;15.77;12.23;;;;;;;;;;7370229;19;20019;-68
2023/06/20 07:58:12;;;;;;;14.15;11.82;;;;;;;;;;7368047;19;20014;-67
2023/06/20 08:00:38;;;;;;;13.55;11.90;;;;;;;;;;7368329;19;20011;-67
2023/06/20 08:03:03;;;;;;;13.63;10.70;;;;;;;;;;7363986;19;20611;-67
2023/06/20 08:05:28;;;;;;;14.30;11.15;;;;;;;;;;7385683;19;20014;-64
2023/06/20 08:07:54;;;;;;;13.70;11.07;;;;;;;;;;7361919;19;20295;-65
2023/06/20 08:10:19;;;;;;;14.45;11.85;;;;;;;;;;7363666;19;20252;-63
2023/06/20 08:12:44;;;;;;;14.90;12.35;;;;;;;;;;7362280;19;20010;-65
2023/06/20 08:15:10;;;;;;;15.80;10.70;;;;;;;;;;7368418;19;20396;-65
2023/06/20 08:17:36;;;;;;;15.48;12.00;;;;;;;;;;7389241;19;20085;-67
2023/06/20 08:20:06;;;;;;;14.43;12.18;;;;;;;;;;7370401;19;20014;-72
2023/06/20 08:22:32;;;;;;;12.45;10.77;;;;;;;;;;7371848;19;20028;-71
2023/06/20 08:24:58;;;;;;;15.00;10.57;;;;;;;;;;7372713;19;20115;-71
2023/06/20 08:27:23;;;;;;;12.15;9.98;;;;;;;;;;7369280;19;20018;-71
2023/06/20 08:29:48;;;;;;;11.20;9.83;;;;;;;;;;7392357;19;19999;-70
2023/06/20 08:32:14;;;;;;;12.73;11.10;;;;;;;;;;7372119;19;20275;-73
2023/06/20 08:34:39;;;;;;;13.57;10.88;;;;;;;;;;7371999;19;20011;-71
2023/06/20 08:37:06;;;;;;;14.15;10.82;;;;;;;;;;7373747;19;20067;-67
2023/06/20 08:39:31;;;;;;;11.95;10.25;;;;;;;;;;7373408;19;20053;-70
2023/06/20 08:41:56;;;;;;;12.40;9.30;;;;;;;;;;7373941;19;20750;-72
2023/06/20 08:44:22;;;;;;;12.13;9.88;;;;;;;;;;7395161;19;20030;-72
2023/06/20 08:46:54;;;;;;;11.43;9.43;;;;;;;;;;7372023;19;20029;-71
2023/06/20 08:49:19;;;;;;;11.32;9.07;;;;;;;;;;7373707;19;20085;-69
2023/06/20 08:51:47;;;;;;;13.13;10.15;;;;;;;;;;7374568;19;20044;-70
2023/06/20 08:54:16;;;;;;;10.85;9.65;;;;;;;;;;7374087;19;20019;-70
2023/06/20 08:56:43;;;;;;;14.15;9.63;;;;;;;;;;7393721;19;20015;-73
2023/06/20 08:59:08;;;;;;;15.18;11.40;;;;;;;;;;7373379;19;20014;-74
2023/06/20 09:01:35;;;;;;;11.77;10.57;;;;;;;;;;7374190;19;20469;-74
2023/06/20 09:04:01;;;;;;;11.73;10.02;;;;;;;;;;7371812;19;20021;-72
2023/06/20 09:06:37;;;;;;;11.88;9.63;;;;;;;;;;7367372;19;20086;-75
2023/06/20 09:09:16;;;;;;;13.05;9.60;;;;;;;;;;7369417;19;20006;-74
2023/06/20 09:11:52;;;;;;;12.80;11.05;;;;;;;;;;7391854;19;20010;-72
2023/06/20 09:14:17;;;;;;;13.02;11.02;;;;;;;;;;7372837;19;20477;-76
2023/06/20 09:16:43;;;;;;;11.57;9.88;;;;;;;;;;7370186;19;20010;-74
2023/06/20 09:19:08;;;;;;;11.23;9.68;;;;;;;;;;7372828;19;20477;-75
2023/06/20 09:21:38;;;;;;;13.75;10.05;;;;;;;;;;7374097;19;20041;-75
2023/06/20 09:24:05;;;;;;;10.23;8.68;;;;;;;;;;7371479;19;20017;-75
2023/06/20 09:26:31;;;;;;;10.93;9.35;;;;;;;;;;7394489;19;20014;-70
2023/06/20 09:29:11;;;;;;;10.77;9.45;;;;;;;;;;7368918;19;20014;-70
2023/06/20 09:31:40;;;;;;;14.55;11.73;;;;;;;;;;7373712;19;20007;-72
2023/06/20 09:34:09;;;;;;;14.48;12.00;;;;;;;;;;7371190;19;20035;-75
2023/06/20 09:36:34;;;;;;;15.77;11.05;;;;;;;;;;7370276;19;20010;-73
2023/06/20 09:39:01;;;;;;;11.52;9.48;;;;;;;;;;7368814;19;20422;-69
2023/06/20 09:41:26;;;;;;;14.35;10.23;;;;;;;;;;7405563;19;20011;-77
2023/06/20 09:43:52;;;;;;;12.52;10.27;;;;;;;;;;7382547;19;20013;-76
2023/06/20 09:46:18;;;;;;;11.97;10.00;;;;;;;;;;7383910;19;20002;-72
2023/06/20 09:48:44;;;;;;;15.67;11.37;;;;;;;;;;7374703;19;20848;-71
2023/06/20 09:51:09;;;;;;;13.20;9.98;;;;;;;;;;7372492;19;20617;-71
2023/06/20 09:53:45;;;;;;;12.93;11.52;;;;;;;;;;7392504;19;19998;-71
2023/06/20 09:56:11;;;;;;;12.27;10.05;;;;;;;;;;7372009;19;20359;-72
2023/06/20 09:58:40;;;;;;;12.23;10.38;;;;;;;;;;7369662;19;20010;-68
2023/06/20 10:01:09;;;;;;;12.57;10.07;;;;;;;;;;7371738;19;20045;-70
2023/06/20 10:03:35;;;;;;;14.45;10.43;;;;;;;;;;7370149;19;20012;-75
2023/06/20 10:06:02;;;;;;;10.88;9.68;;;;;;;;;;7367460;19;20310;-74
2023/06/20 10:08:29;;;;;;;10.90;9.20;;;;;;;;;;7389830;19;20339;-75
2023/06/20 10:10:54;;;;;;;11.50;8.95;;;;;;;;;;7369139;19;19999;-75
2023/06/20 10:13:20;;;;;;;11.32;8.77;;;;;;;;;;7369690;19;20021;-75
2023/06/20 10:15:45;;;;;;;11.63;8.60;;;;;;;;;;7369886;19;20040;-72
2023/06/20 10:18:31;;;;;;;9.88;8.10;;;;;;;;;;7369053;19;19998;-73
2023/06/20 10:20:56;;;;;;;11.82;10.10;;;;;;;;;;7369363;19;20006;-72
2023/06/20 10:23:30;;;;;;;10.35;8.30;;;;;;;;;;7391328;19;20027;-74
2023/06/20 10:26:01;;;;;;;10.48;8.80;;;;;;;;;;7367693;19;20018;-72
2023/06/20 10:28:27;;;;;;;11.02;8.68;;;;;;;;;;7369315;19;20010;-71
2023/06/20 10:30:57;;;;;;;9.45;8.18;;;;;;;;;;7368024;19;20636;-69
2023/06/20 10:33:26;;;;;;;;;;;;;;;;;;7369661;19;20006;-70
2023/06/20 10:35:55;;;;;;;8.67;7.67;;;;;;;;;;7388790;19;19991;-69
2023/06/20 10:38:21;;;;;;;8.80;7.57;;;;;;;;;;7366731;19;20379;-71
2023/06/20 10:40:46;;;;;;;7.72;6.70;;;;;;;;;;7367596;19;20242;-70
2023/06/20 10:43:16;;;;;;;9.13;7.53;;;;;;;;;;7370191;19;20012;-70
2023/06/20 10:45:59;;;;;;;8.45;7.53;;;;;;;;;;7367748;19;20901;-73
2023/06/20 10:48:26;;;;;;;9.70;7.78;;;;;;;;;;7367827;19;20010;-71
2023/06/20 10:50:59;;;;;;;10.27;7.78;;;;;;;;;;7389534;19;20010;-70
2023/06/20 10:53:27;;;;;;;9.30;7.43;;;;;;;;;;7368924;19;20007;-71
2023/06/20 10:55:52;;;;;;;10.15;7.93;;;;;;;;;;7366697;19;20039;-71
2023/06/20 10:58:17;;;;;;;9.40;7.13;;;;;;;;;;7367436;19;20387;-70
2023/06/20 11:00:43;;;;;;;11.63;7.35;;;;;;;;;;7367174;19;20006;-69
2023/06/20 11:03:09;;;;;;;9.33;6.80;;;;;;;;;;7366004;19;20099;-70
2023/06/20 11:05:34;;;;;;;10.00;7.20;;;;;;;;;;7387583;19;20597;-72
2023/06/20 11:08:08;;;;;;;9.15;6.22;;;;;;;;;;7365497;19;20011;-71
2023/06/20 11:10:35;;;;;;;9.65;7.00;;;;;;;;;;7365946;19;20054;-72
2023/06/20 11:13:03;;;;;;;9.52;7.22;;;;;;;;;;7367132;19;20011;-69
2023/06/20 11:15:30;;;;;;;9.48;6.25;;;;;;;;;;7366106;19;20007;-70
2023/06/20 11:17:57;;;;;;;10.85;6.82;;;;;;;;;;7365246;19;20545;-69
2023/06/20 11:20:24;;;;;;;8.02;6.45;;;;;;;;;;7386666;19;20461;-71
2023/06/20 11:22:52;;;;;;;7.63;5.65;;;;;;;;;;7367430;19;20010;-71
2023/06/20 11:25:28;;;;;;;8.40;5.80;;;;;;;;;;7367159;19;20009;-72
2023/06/20 11:27:55;;;;;;;8.30;6.15;;;;;;;;;;7366925;19;20028;-69
2023/06/20 11:30:25;;;;;;;8.85;5.93;;;;;;;;;;7367492;19;20003;-70
2023/06/20 11:33:02;;;;;;;7.38;4.65;;;;;;;;;;7388247;19;20023;-68
2023/06/20 11:35:38;;;;;;;8.63;4.78;;;;;;;;;;7368288;19;20021;-75
2023/06/20 11:38:03;;;;;;;6.93;4.78;;;;;;;;;;7365246;19;20469;-76
2023/06/20 11:40:29;;;;;;;7.03;5.25;;;;;;;;;;7366678;19;20006;-74
2023/06/20 11:42:54;;;;;;;8.30;5.10;;;;;;;;;;7367095;19;20073;-70
2023/06/20 11:45:24;;;;;;;7.45;4.80;;;;;;;;;;7365643;19;20438;-69
2023/06/20 11:48:06;;;;;;;6.50;4.72;;;;;;;;;;7394611;19;19998;-79
2023/06/20 11:50:32;;;;;;;6.65;5.05;;;;;;;;;;7374527;19;20003;-75
2023/06/20 11:52:57;;;;;;;8.98;4.70;;;;;;;;;;7375153;19;20018;-72
2023/06/20 11:55:48;;;;;;;5.93;4.72;;;;;;;;;;7374268;19;20413;-74
2023/06/20 11:58:14;;;;;;;7.18;5.47;;;;;;;;;;7373352;19;20017;-73
2023/06/20 12:00:40;;;;;;;8.07;5.88;;;;;;;;;;7375725;19;20006;-70
2023/06/20 12:03:10;;;;;;;7.95;5.22;;;;;;;;;;7378918;19;20007;-72
2023/06/20 12:05:37;;;;;;;6.65;5.22;;;;;;;;;;7377973;19;20105;-72
2023/06/20 12:08:03;;;;;;;8.88;5.50;;;;;;;;;;7395835;19;20472;-66
2023/06/20 12:10:29;;;;;;;7.57;5.07;;;;;;;;;;7372749;19;20011;-66
2023/06/20 12:12:54;;;;;;;8.00;5.15;;;;;;;;;;7373408;19;20014;-66
2023/06/20 12:15:20;;;;;;;8.15;5.25;;;;;;;;;;7373086;19;20440;-66
2023/06/20 12:17:45;;;;;;;7.38;5.63;;;;;;;;;;7372103;19;20030;-66
2023/06/20 12:20:11;;;;;;;9.30;4.88;;;;;;;;;;7372654;19;20511;-66
2023/06/20 12:22:36;;;;;;;8.55;5.88;;;;;;;;;;7394721;19;20002;-71
2023/06/20 12:25:03;;;;;;;8.00;5.65;;;;;;;;;;7371930;19;20006;-72
2023/06/20 12:27:28;;;;;;;7.70;5.57;;;;;;;;;;7372485;19;20002;-69
2023/06/20 12:29:53;;;;;;;6.90;5.20;;;;;;;;;;7372240;19;20014;-75
2023/06/20 12:32:19;;;;;;;7.90;5.55;;;;;;;;;;7373086;19;20019;-74
2023/06/20 12:34:44;;;;;;;7.47;5.30;;;;;;;;;;7395128;19;20456;-76
2023/06/20 12:37:09;;;;;;;7.00;5.87;;;;;;;;;;7370423;19;20360;-71
2023/06/20 12:39:35;;;;;;;9.00;5.80;;;;;;;;;;7371261;19;20271;-73
2023/06/20 12:42:00;;;;;;;8.63;6.20;;;;;;;;;;7372760;19;20007;-71
2023/06/20 12:44:26;;;;;;;9.40;6.00;;;;;;;;;;7373217;19;19998;-75
2023/06/20 12:46:52;;;;;;;8.35;6.32;;;;;;;;;;7391468;19;20002;-72
2023/06/20 12:49:18;;;;;;;10.98;6.43;;;;;;;;;;7368936;19;20495;-70
2023/06/20 12:51:44;;;;;;;10.23;6.68;;;;;;;;;;7372301;19;20006;-70
2023/06/20 12:54:10;;;;;;;9.80;6.40;;;;;;;;;;7372022;19;20010;-69
2023/06/20 12:56:35;;;;;;;6.82;5.38;;;;;;;;;;7370285;19;20006;-69
2023/06/20 12:59:00;;;;;;;8.75;6.05;;;;;;;;;;7389891;19;20057;-68
2023/06/20 13:01:26;;;;;;;9.18;5.93;;;;;;;;;;7368663;19;20003;-67
2023/06/20 13:03:51;;;;;;;11.50;6.25;;;;;;;;;;7369448;19;20658;-68
2023/06/20 13:06:16;;;;;;;8.40;6.13;;;;;;;;;;7371306;19;20015;-67
2023/06/20 13:08:42;;;;;;;9.10;6.07;;;;;;;;;;7371021;19;20274;-67
2023/06/20 13:11:08;;;;;;;6.82;4.90;;;;;;;;;;7383636;19;20359;-68
2023/06/20 13:13:34;;;;;;;7.68;4.55;;;;;;;;;;7382764;19;20082;-71
2023/06/20 13:16:00;;;;;;;7.18;5.00;;;;;;;;;;7368713;19;19998;-74
2023/06/20 13:18:25;;;;;;;6.53;4.75;;;;;;;;;;7370176;19;20182;-71
2023/06/20 13:20:51;;;;;;;9.05;5.32;;;;;;;;;;7367963;19;20013;-75
2023/06/20 13:23:17;;;;;;;9.23;5.43;;;;;;;;;;7369252;19;20006;-71
2023/06/20 13:25:42;;;;;;;8.10;6.00;;;;;;;;;;7385570;19;20039;-69
2023/06/20 13:28:08;;;;;;;10.23;5.40;;;;;;;;;;7367268;19;20028;-68
2023/06/20 13:30:33;;;;;;;6.97;4.78;;;;;;;;;;7368854;19;20013;-71
2023/06/20 13:32:58;;;;;;;6.40;5.22;;;;;;;;;;7369363;19;20376;-72
2023/06/20 13:35:24;;;;;;;9.30;5.00;;;;;;;;;;7368706;19;20002;-71
2023/06/20 13:37:49;;;;;;;8.88;5.35;;;;;;;;;;7389734;19;20849;-71
2023/06/20 13:40:15;;;;;;;6.68;5.15;;;;;;;;;;7368846;19;20018;-69
2023/06/20 13:42:42;;;;;;;7.25;5.30;;;;;;;;;;7369140;19;20010;-73
2023/06/20 13:45:15;;;;;;;9.13;5.22;;;;;;;;;;7370436;19;20021;-75
2023/06/20 13:47:41;;;;;;;7.70;5.38;;;;;;;;;;7368801;19;20026;-69
2023/06/20 13:50:07;;;;;;;6.90;5.32;;;;;;;;;;7390688;19;20130;-69
2023/06/20 13:52:32;;;;;;;7.30;5.60;;;;;;;;;;7371076;19;20015;-70
2023/06/20 13:54:58;;;;;;;9.45;6.10;;;;;;;;;;7367548;19;20014;-69
2023/06/20 13:57:23;;;;;;;7.95;5.90;;;;;;;;;;7364268;19;20185;-70
2023/06/20 13:59:49;;;;;;;8.35;5.50;;;;;;;;;;7364163;19;20026;-70
2023/06/20 14:02:14;;;;;;;7.88;6.13;;;;;;;;;;7366266;19;20005;-68
2023/06/20 14:04:39;;;;;;;8.70;5.90;;;;;;;;;;7390224;19;20125;-70
2023/06/20 14:07:05;;;;;;;8.07;6.10;;;;;;;;;;7363470;19;20058;-70
2023/06/20 14:09:31;;;;;;;8.75;5.93;;;;;;;;;;7368115;19;20014;-70
2023/06/20 14:11:57;;;;;;;7.40;5.95;;;;;;;;;;7367547;19;20376;-71
2023/06/20 14:14:25;;;;;;;8.73;6.00;;;;;;;;;;7368022;19;20014;-70
2023/06/20 14:16:51;;;;;;;9.55;6.00;;;;;;;;;;7391024;19;20021;-78
2023/06/20 14:19:16;;;;;;;10.68;6.28;;;;;;;;;;7366714;19;20113;-78
2023/06/20 14:21:43;;;;;;;6.82;5.25;;;;;;;;;;7370126;19;20013;-73
2023/06/20 14:24:08;;;;;;;9.40;5.82;;;;;;;;;;7371795;19;20035;-78
2023/06/20 14:26:34;;;;;;;10.30;5.90;;;;;;;;;;7367164;19;20007;-73
2023/06/20 14:28:59;;;;;;;7.63;5.78;;;;;;;;;;7389564;19;20070;-69